createdAt,value
2022-08-17T00:02:09.846Z,98823.52
2022-08-17T00:05:29.038Z,98823.23
2022-08-17T00:08:35.101Z,98822.99
2022-08-17T00:11:40.586Z,98827.42
2022-08-17T00:14:42.586Z,98828.19
2022-08-17T00:17:47.533Z,98829.13
2022-08-17T00:20:49.241Z,98826.58
2022-08-17T00:23:51.165Z,98832.92
2022-08-17T00:26:52.830Z,98831.89
2022-08-17T00:29:54.550Z,98835.20
2022-08-17T00:33:15.709Z,98834.70
2022-08-17T00:36:18.476Z,98833.11
2022-08-17T00:39:20.432Z,98828.56
2022-08-17T00:42:24.489Z,98835.40
2022-08-17T00:45:28.261Z,98838.27
2022-08-17T00:48:31.044Z,98841.20
2022-08-17T00:51:50.378Z,98843.62
2022-08-17T00:54:54.255Z,98842.84
2022-08-17T00:57:59.244Z,98834.38
2022-08-17T01:01:04.290Z,98830.50
2022-08-17T01:04:06.521Z,98827.28
2022-08-17T01:07:10.657Z,98823.30
2022-08-17T01:10:58.843Z,98826.93
2022-08-17T01:13:41.443Z,98824.00
2022-08-17T01:16:43.506Z,98827.55
2022-08-17T01:19:45.476Z,98826.09
2022-08-17T01:22:47.556Z,98829.73
2022-08-17T01:25:51.024Z,98828.41
2022-08-17T01:28:55.686Z,98828.38
2022-08-17T01:32:01.090Z,98831.27
2022-08-17T01:35:03.087Z,98828.98
2022-08-17T01:38:05.437Z,98828.60
2022-08-17T01:41:12.978Z,98828.36
2022-08-17T01:44:16.776Z,98825.21
2022-08-17T01:47:18.617Z,98823.35
2022-08-17T01:50:27.811Z,98828.23
2022-08-17T01:53:42.458Z,98829.77
2022-08-17T01:56:47.619Z,98831.65
2022-08-17T01:59:49.670Z,98835.27
2022-08-17T02:02:51.573Z,98836.39
2022-08-17T02:05:53.738Z,98846.99
2022-08-17T02:09:02.230Z,98852.42
2022-08-17T02:12:39.149Z,98847.55
2022-08-17T02:15:29.294Z,98845.01
2022-08-17T02:18:31.008Z,98842.98
2022-08-17T02:21:34.337Z,98838.88
2022-08-17T02:24:58.279Z,98837.71
2022-08-17T02:28:00.169Z,98840.08
2022-08-17T02:31:07.911Z,98844.92
2022-08-17T02:34:09.907Z,98842.30
2022-08-17T02:37:12.019Z,98842.65
2022-08-17T02:40:13.849Z,98844.73
2022-08-17T02:43:15.806Z,98848.55
2022-08-17T02:46:17.612Z,98848.01
2022-08-17T02:49:19.415Z,98853.06
2022-08-17T02:52:42.413Z,98851.57
2022-08-17T02:55:44.131Z,98862.11
2022-08-17T02:58:46.501Z,98860.77
2022-08-17T03:01:49.109Z,98866.63
2022-08-17T03:04:50.987Z,98866.55
2022-08-17T03:07:53.427Z,98865.71
2022-08-17T03:10:55.778Z,98862.41
2022-08-17T03:13:58.716Z,98864.96
2022-08-17T03:17:01.386Z,98865.83
2022-08-17T03:20:04.765Z,98865.25
2022-08-17T03:23:07.052Z,98864.17
2022-08-17T03:26:12.184Z,98861.42
2022-08-17T03:29:19.329Z,98862.09
2022-08-17T03:32:21.145Z,98865.01
2022-08-17T03:35:26.210Z,98864.12
2022-08-17T03:38:28.012Z,98863.98
2022-08-17T03:41:29.926Z,98863.00
2022-08-17T03:44:31.694Z,98861.52
2022-08-17T03:47:52.047Z,98863.86
2022-08-17T03:51:14.797Z,98861.65
2022-08-17T03:54:35.571Z,98863.42
2022-08-17T03:57:37.983Z,98864.49
2022-08-17T04:00:40.584Z,98869.15
2022-08-17T04:03:42.311Z,98874.65
2022-08-17T04:06:44.606Z,98878.20
2022-08-17T04:09:46.299Z,98881.33
2022-08-17T04:12:52.989Z,98878.08
2022-08-17T04:15:56.349Z,98880.24
2022-08-17T04:18:58.098Z,98882.33
2022-08-17T04:21:59.980Z,98880.86
2022-08-17T04:25:15.154Z,98886.09
2022-08-17T04:28:20.782Z,98886.44
2022-08-17T04:31:23.049Z,98887.05
2022-08-17T04:34:25.233Z,98889.08
2022-08-17T04:37:27.075Z,98892.30
2022-08-17T04:40:47.282Z,98893.52
2022-08-17T04:43:50.142Z,98898.06
2022-08-17T04:46:51.850Z,98897.06
2022-08-17T04:49:54.079Z,98896.38
2022-08-17T04:52:56.319Z,98898.89
2022-08-17T04:55:59.332Z,98901.38
2022-08-17T04:59:04.658Z,98901.83
2022-08-17T05:02:06.698Z,98904.15
2022-08-17T05:05:09.050Z,98901.02
2022-08-17T05:08:11.281Z,98903.53
2022-08-17T05:11:13.928Z,98907.88
2022-08-17T05:14:15.789Z,98915.59
2022-08-17T05:17:17.587Z,98917.56
2022-08-17T05:20:19.799Z,98921.58
2022-08-17T05:23:24.499Z,98921.23
2022-08-17T05:26:28.061Z,98918.51
2022-08-17T05:29:35.302Z,98921.86
2022-08-17T05:32:40.305Z,98922.73
2022-08-17T05:35:47.048Z,98916.86
2022-08-17T05:38:48.961Z,98916.67
2022-08-17T05:41:50.814Z,98920.03
2022-08-17T05:44:52.736Z,98919.64
2022-08-17T05:47:54.535Z,98920.58
2022-08-17T05:51:05.127Z,98923.63
2022-08-17T05:54:18.071Z,98922.23
2022-08-17T05:57:47.659Z,98920.73
2022-08-17T06:01:04.615Z,98916.73
2022-08-17T06:04:26.858Z,98917.91
2022-08-17T06:07:41.924Z,98925.16
2022-08-17T06:10:48.649Z,98921.71
2022-08-17T06:14:11.706Z,98918.20
2022-08-17T06:17:16.213Z,98921.32
2022-08-17T06:20:18.110Z,98919.56
2022-08-17T06:23:27.034Z,98922.64
2022-08-17T06:26:38.516Z,98921.58
2022-08-17T06:29:51.057Z,98916.77
2022-08-17T06:32:55.809Z,98920.95
2022-08-17T06:36:35.371Z,98922.25
2022-08-17T06:39:37.877Z,98924.23
2022-08-17T06:43:07.860Z,98919.61
2022-08-17T06:46:15.616Z,98919.55
2022-08-17T06:49:28.691Z,98924.83
2022-08-17T06:52:46.274Z,98920.95
2022-08-17T06:56:13.786Z,98924.41
2022-08-17T06:59:18.806Z,98924.63
2022-08-17T07:02:52.122Z,98931.20
2022-08-17T07:05:59.524Z,98937.09
2022-08-17T07:09:14.587Z,98935.61
2022-08-17T07:12:20.044Z,98926.84
2022-08-17T07:15:27.619Z,98928.48
2022-08-17T07:18:30.504Z,98931.44
2022-08-17T07:22:00.050Z,98929.98
2022-08-17T07:25:09.028Z,98930.23
2022-08-17T07:28:11.170Z,98929.70
2022-08-17T07:31:17.080Z,98928.19
2022-08-17T07:34:19.095Z,98934.35
2022-08-17T07:37:20.962Z,98934.70
2022-08-17T07:40:27.246Z,98934.30
2022-08-17T07:43:41.160Z,98932.37
2022-08-17T07:47:11.438Z,98929.69
2022-08-17T07:50:33.438Z,98925.20
2022-08-17T07:53:35.761Z,98926.14
2022-08-17T07:56:45.552Z,98925.45
2022-08-17T08:00:03.155Z,98921.92
2022-08-17T08:03:31.946Z,98921.99
2022-08-17T08:06:36.398Z,98919.77
2022-08-17T08:09:42.658Z,98916.75
2022-08-17T08:12:52.746Z,98915.45
2022-08-17T08:16:24.610Z,98919.30
2022-08-17T08:19:28.374Z,98920.78
2022-08-17T08:22:49.721Z,98920.71
2022-08-17T08:26:17.964Z,98918.27
2022-08-17T08:29:23.369Z,98918.65
2022-08-17T08:32:25.033Z,98921.36
2022-08-17T08:35:34.641Z,98921.83
2022-08-17T08:38:48.771Z,98919.64
2022-08-17T08:42:14.428Z,98919.10
2022-08-17T08:45:35.987Z,98917.66
2022-08-17T08:48:56.921Z,98915.66
2022-08-17T08:52:02.995Z,98915.92
2022-08-17T08:55:23.013Z,98916.36
2022-08-17T08:58:42.093Z,98911.14
2022-08-17T09:02:14.338Z,98909.09
2022-08-17T09:05:34.966Z,98910.86
2022-08-17T09:08:48.696Z,98911.45
2022-08-17T09:12:01.397Z,98914.05
2022-08-17T09:15:17.798Z,98912.31
2022-08-17T09:19:03.216Z,98912.59
2022-08-17T09:21:54.701Z,98915.85
2022-08-17T09:25:07.199Z,98919.05
2022-08-17T09:28:19.323Z,98919.12
2022-08-17T09:31:46.398Z,98921.48
2022-08-17T09:35:00.221Z,98919.09
2022-08-17T09:38:10.164Z,98926.58
2022-08-17T09:41:48.502Z,98924.48
2022-08-17T09:44:53.921Z,98922.40
2022-08-17T09:48:18.529Z,98925.02
2022-08-17T09:51:25.520Z,98919.70
2022-08-17T09:54:39.201Z,98924.34
2022-08-17T09:58:21.774Z,98928.71
2022-08-17T10:01:55.959Z,98926.09
2022-08-17T10:05:12.775Z,98926.82
2022-08-17T10:08:42.567Z,98923.97
2022-08-17T10:12:20.174Z,98920.61
2022-08-17T10:15:36.724Z,98923.52
2022-08-17T10:18:51.345Z,98925.11
2022-08-17T10:22:14.684Z,98925.78
2022-08-17T10:25:57.831Z,98925.02
2022-08-17T10:29:06.728Z,98921.84
2022-08-17T10:32:11.811Z,98915.31
2022-08-17T10:35:37.746Z,98913.83
2022-08-17T10:38:49.989Z,98913.50
2022-08-17T10:41:56.132Z,98910.63
2022-08-17T10:45:17.708Z,98906.16
2022-08-17T10:48:36.839Z,98904.13
2022-08-17T10:51:40.722Z,98909.85
2022-08-17T10:55:12.599Z,98911.30
2022-08-17T10:58:21.991Z,98911.17
2022-08-17T11:01:33.883Z,98909.20
2022-08-17T11:04:57.407Z,98911.86
2022-08-17T11:08:24.971Z,98903.02
2022-08-17T11:11:37.203Z,98902.36
2022-08-17T11:15:03.831Z,98905.29
2022-08-17T11:18:31.697Z,98902.58
2022-08-17T11:22:00.789Z,98895.65
2022-08-17T11:25:21.208Z,98893.45
2022-08-17T11:28:34.645Z,98892.90
2022-08-17T11:31:42.702Z,98891.77
2022-08-17T11:34:46.075Z,98892.18
2022-08-17T11:37:54.263Z,98892.13
2022-08-17T11:41:27.450Z,98888.42
2022-08-17T11:44:42.392Z,98886.98
2022-08-17T11:48:27.225Z,98885.33
2022-08-17T11:51:56.805Z,98880.19
2022-08-17T11:55:24.191Z,98879.64
2022-08-17T11:58:46.006Z,98879.96
2022-08-17T12:01:55.879Z,98884.52
2022-08-17T12:05:09.794Z,98883.19
2022-08-17T12:08:18.594Z,98888.08
2022-08-17T12:12:11.277Z,98885.42
2022-08-17T12:15:11.733Z,98886.52
2022-08-17T12:18:28.084Z,98886.67
2022-08-17T12:21:48.821Z,98886.82
2022-08-17T12:25:14.780Z,98887.13
2022-08-17T12:28:37.385Z,98883.91
2022-08-17T12:31:51.213Z,98884.29
2022-08-17T12:34:54.041Z,98888.54
2022-08-17T12:37:59.784Z,98888.31
2022-08-17T12:41:22.939Z,98885.39
2022-08-17T12:44:35.922Z,98889.47
2022-08-17T12:48:13.209Z,98886.91
2022-08-17T12:51:15.086Z,98884.08
2022-08-17T12:54:37.821Z,98883.66
2022-08-17T12:57:46.549Z,98886.86
2022-08-17T13:01:00.511Z,98890.42
2022-08-17T13:04:03.830Z,98886.45
2022-08-17T13:07:05.698Z,98886.95
2022-08-17T13:10:07.818Z,98880.41
2022-08-17T13:13:25.096Z,98879.48
2022-08-17T13:16:28.755Z,98878.40
2022-08-17T13:19:41.110Z,98884.73
2022-08-17T13:22:44.527Z,98883.58
2022-08-17T13:25:54.459Z,98885.44
2022-08-17T13:28:56.379Z,98886.21
2022-08-17T13:32:05.166Z,98883.90
2022-08-17T13:35:34.471Z,98884.05
2022-08-17T13:38:49.558Z,98878.59
2022-08-17T13:41:53.896Z,98875.40
2022-08-17T13:44:56.248Z,98872.98
2022-08-17T13:48:17.051Z,98877.90
2022-08-17T13:51:25.914Z,98878.38
2022-08-17T13:54:36.089Z,98880.19
2022-08-17T13:57:37.966Z,98883.77
2022-08-17T14:00:40.850Z,98886.89
2022-08-17T14:03:42.665Z,98884.42
2022-08-17T14:06:54.985Z,98883.64
2022-08-17T14:10:01.539Z,98883.05
2022-08-17T14:13:04.052Z,98882.06
2022-08-17T14:16:05.885Z,98881.20
2022-08-17T14:19:16.774Z,98880.21
2022-08-17T14:22:40.194Z,98876.30
2022-08-17T14:25:41.895Z,98881.63
2022-08-17T14:28:56.339Z,98888.90
2022-08-17T14:32:04.992Z,98887.34
2022-08-17T14:35:08.395Z,98882.80
2022-08-17T14:38:10.074Z,98879.56
2022-08-17T14:41:11.958Z,98877.15
2022-08-17T14:44:14.244Z,98885.54
2022-08-17T14:47:16.082Z,98888.33
2022-08-17T14:50:19.713Z,98887.43
2022-08-17T14:53:21.529Z,98889.91
2022-08-17T14:56:24.509Z,98890.24
2022-08-17T14:59:26.339Z,98888.69
2022-08-17T15:02:30.013Z,98885.04
2022-08-17T15:05:36.687Z,98890.65
2022-08-17T15:08:38.589Z,98892.64
2022-08-17T15:11:40.575Z,98901.13
2022-08-17T15:14:42.449Z,98901.65
2022-08-17T15:17:45.894Z,98906.95
2022-08-17T15:20:50.102Z,98911.31
2022-08-17T15:23:51.925Z,98912.79
2022-08-17T15:26:53.712Z,98914.02
2022-08-17T15:29:55.500Z,98919.25
2022-08-17T15:32:59.253Z,98923.11
2022-08-17T15:36:06.555Z,98918.31
2022-08-17T15:39:08.300Z,98923.85
2022-08-17T15:42:09.947Z,98926.70
2022-08-17T15:45:13.713Z,98933.81
2022-08-17T15:48:15.459Z,98935.78
2022-08-17T15:51:19.310Z,98932.60
2022-08-17T15:54:22.818Z,98933.39
2022-08-17T15:57:26.382Z,98930.28
2022-08-17T16:00:29.555Z,98925.15
2022-08-17T16:04:01.480Z,98922.64
2022-08-17T16:06:54.455Z,98930.80
2022-08-17T16:09:56.166Z,98938.21
2022-08-17T16:12:58.811Z,98943.08
2022-08-17T16:16:00.948Z,98942.75
2022-08-17T16:19:03.098Z,98940.42
2022-08-17T16:22:07.244Z,98941.92
2022-08-17T16:25:13.879Z,98949.61
2022-08-17T16:28:17.057Z,98948.46
2022-08-17T16:31:19.346Z,98952.05
2022-08-17T16:34:21.492Z,98946.29
2022-08-17T16:37:23.261Z,98948.99
2022-08-17T16:40:28.957Z,98949.67
2022-08-17T16:43:31.359Z,98957.92
2022-08-17T16:46:33.721Z,98962.18
2022-08-17T16:49:38.139Z,98959.10
2022-08-17T16:52:40.546Z,98957.40
2022-08-17T16:55:42.855Z,98956.55
2022-08-17T16:58:45.383Z,98952.33
2022-08-17T17:01:48.046Z,98954.13
2022-08-17T17:04:53.887Z,98958.26
2022-08-17T17:08:05.057Z,98960.56
2022-08-17T17:11:13.118Z,98960.90
2022-08-17T17:14:22.801Z,98964.25
2022-08-17T17:17:35.899Z,98963.00
2022-08-17T17:20:47.884Z,98957.73
2022-08-17T17:24:01.343Z,98961.25
2022-08-17T17:27:21.577Z,98965.34
2022-08-17T17:30:24.377Z,98970.58
2022-08-17T17:33:40.453Z,98973.94
2022-08-17T17:36:48.373Z,98971.92
2022-08-17T17:39:53.380Z,98978.35
2022-08-17T17:43:09.289Z,98979.48
2022-08-17T17:46:27.851Z,98978.30
2022-08-17T17:49:39.291Z,98983.88
2022-08-17T17:52:47.450Z,98983.67
2022-08-17T17:56:06.929Z,98987.74
2022-08-17T17:59:51.418Z,98992.05
2022-08-17T18:03:21.143Z,98997.86
2022-08-17T18:06:33.183Z,99002.55
2022-08-17T18:10:02.623Z,98998.42
2022-08-17T18:13:15.460Z,98999.25
2022-08-17T18:16:19.312Z,99002.29
2022-08-17T18:19:21.678Z,99006.19
2022-08-17T18:22:24.249Z,99009.58
2022-08-17T18:25:48.037Z,99006.46
2022-08-17T18:28:51.785Z,99010.27
2022-08-17T18:32:31.442Z,99011.06
2022-08-17T18:35:35.217Z,99014.85
2022-08-17T18:38:40.222Z,99017.08
2022-08-17T18:41:45.339Z,99021.77
2022-08-17T18:44:49.583Z,99020.95
2022-08-17T18:47:55.462Z,99025.20
2022-08-17T18:51:01.240Z,99021.48
2022-08-17T18:54:08.860Z,99022.27
2022-08-17T18:57:11.109Z,99022.17
2022-08-17T19:00:36.403Z,99021.84
2022-08-17T19:03:42.404Z,99016.92
2022-08-17T19:06:44.391Z,99018.36
2022-08-17T19:09:49.292Z,99022.02
2022-08-17T19:13:12.518Z,99027.44
2022-08-17T19:16:20.900Z,99033.38
2022-08-17T19:19:28.912Z,99031.98
2022-08-17T19:22:50.942Z,99030.34
2022-08-17T19:25:59.159Z,99038.16
2022-08-17T19:29:12.579Z,99036.61
2022-08-17T19:32:18.843Z,99041.18
2022-08-17T19:35:22.275Z,99039.91
2022-08-17T19:38:35.026Z,99036.94
2022-08-17T19:42:03.825Z,99039.58
2022-08-17T19:45:45.289Z,99041.75
2022-08-17T19:49:03.729Z,99049.63
2022-08-17T19:52:30.233Z,99054.45
2022-08-17T19:55:43.615Z,99052.86
2022-08-17T19:59:01.129Z,99058.53
2022-08-17T20:02:42.109Z,99059.30
2022-08-17T20:06:11.928Z,99063.92
2022-08-17T20:09:26.102Z,99067.59
2022-08-17T20:12:38.250Z,99070.81
2022-08-17T20:15:42.639Z,99069.96
2022-08-17T20:18:55.579Z,99066.51
2022-08-17T20:22:06.439Z,99058.40
2022-08-17T20:25:13.811Z,99060.20
2022-08-17T20:28:30.646Z,99060.39
2022-08-17T20:31:40.290Z,99066.65
2022-08-17T20:34:45.614Z,99073.90
2022-08-17T20:38:08.303Z,99075.96
2022-08-17T20:41:14.176Z,99075.96
2022-08-17T20:44:31.907Z,99073.83
2022-08-17T20:48:07.396Z,99077.63
2022-08-17T20:51:18.574Z,99082.55
2022-08-17T20:54:31.895Z,99087.27
2022-08-17T20:57:33.621Z,99088.80
2022-08-17T21:00:59.079Z,99086.87
2022-08-17T21:04:07.249Z,99087.62
2022-08-17T21:07:33.030Z,99084.72
2022-08-17T21:10:47.070Z,99086.08
2022-08-17T21:14:05.503Z,99088.63
2022-08-17T21:17:17.832Z,99081.39
2022-08-17T21:20:27.813Z,99081.14
2022-08-17T21:24:04.714Z,99079.85
2022-08-17T21:27:24.717Z,99079.58
2022-08-17T21:30:29.425Z,99083.71
2022-08-17T21:33:33.828Z,99078.41
2022-08-17T21:36:35.513Z,99078.38
2022-08-17T21:39:40.683Z,99077.36
2022-08-17T21:42:48.426Z,99082.04
2022-08-17T21:46:06.096Z,99077.61
2022-08-17T21:49:13.783Z,99078.34
2022-08-17T21:52:21.409Z,99079.17
2022-08-17T21:55:29.275Z,99079.80
2022-08-17T21:58:40.336Z,99085.41
2022-08-17T22:01:43.056Z,99078.62
2022-08-17T22:05:02.477Z,99070.71
2022-08-17T22:08:16.808Z,99069.13
2022-08-17T22:11:18.727Z,99066.67
2022-08-17T22:14:51.513Z,99067.78
2022-08-17T22:17:55.930Z,99061.99
2022-08-17T22:20:59.455Z,99064.96
2022-08-17T22:24:04.706Z,99066.11
2022-08-17T22:27:11.722Z,99062.52
2022-08-17T22:30:29.205Z,99059.66
2022-08-17T22:33:46.597Z,99051.17
2022-08-17T22:36:48.362Z,99044.25
2022-08-17T22:39:58.989Z,99036.69
2022-08-17T22:43:03.637Z,99034.77
2022-08-17T22:46:07.977Z,99032.18
2022-08-17T22:49:09.825Z,99034.22
2022-08-17T23:05:13.057Z,99032.98
2022-08-17T23:08:21.475Z,99039.16
2022-08-17T23:11:36.902Z,99045.01
2022-08-17T23:23:23.974Z,99063.25
2022-08-17T23:26:27.891Z,99059.05
2022-08-17T23:29:29.725Z,99050.23
2022-08-17T23:32:31.598Z,99045.38
2022-08-17T23:35:40.136Z,99050.26
2022-08-17T23:38:46.701Z,99048.34
2022-08-17T23:41:50.516Z,99049.20
2022-08-17T23:44:53.228Z,99049.73
2022-08-17T23:47:55.459Z,99048.15
2022-08-17T23:50:57.381Z,99055.05
2022-08-17T23:54:12.637Z,99060.81
2022-08-17T23:57:17.815Z,99062.66
